createdAt,value
2022-10-08T00:01:22.391Z,100973.97
2022-10-08T00:03:52.869Z,100980.69
2022-10-08T00:06:21.920Z,100975.09
2022-10-08T00:08:51.114Z,100984.38
2022-10-08T00:11:22.355Z,100982.03
2022-10-08T00:13:51.109Z,100977.72
2022-10-08T00:16:22.694Z,100979.06
2022-10-08T00:18:52.097Z,100983.38
2022-10-08T00:21:21.874Z,100982.38
2022-10-08T00:23:51.272Z,100981.22
2022-10-08T00:26:23.578Z,100976.94
2022-10-08T00:28:52.322Z,100959.88
2022-10-08T00:31:23.456Z,100968.47
2022-10-08T00:33:51.637Z,100973.69
2022-10-08T00:36:19.821Z,100969.84
2022-10-08T00:38:49.225Z,100972.03
2022-10-08T00:41:20.764Z,100969.88
2022-10-08T00:43:49.751Z,100956.06
2022-10-08T00:46:27.833Z,100962.75
2022-10-08T00:48:58.428Z,100958.41
2022-10-08T00:51:26.534Z,100950.53
2022-10-08T00:53:54.683Z,100953.56
2022-10-08T00:56:24.307Z,100947.09
2022-10-08T00:58:52.576Z,100942.03
2022-10-08T01:01:20.798Z,100938.16
2022-10-08T01:03:50.096Z,100938.63
2022-10-08T01:06:25.041Z,100930.94
2022-10-08T01:08:56.326Z,100935.56
2022-10-08T01:11:35.167Z,100937.13
2022-10-08T01:14:07.405Z,100933.66
2022-10-08T01:16:43.604Z,100940.47
2022-10-08T01:19:24.142Z,100930.63
2022-10-08T01:22:00.816Z,100927.56
2022-10-08T01:24:49.230Z,100925.69
2022-10-08T01:27:24.558Z,100923.19
2022-10-08T01:29:53.770Z,100921.81
2022-10-08T01:32:23.591Z,100914.50
2022-10-08T01:34:54.753Z,100923.50
2022-10-08T01:37:25.288Z,100916.88
2022-10-08T01:39:55.185Z,100916.59
2022-10-08T01:42:26.024Z,100917.31
2022-10-08T01:44:57.058Z,100904.66
2022-10-08T01:47:26.657Z,100904.16
2022-10-08T01:49:56.332Z,100899.94
2022-10-08T01:52:26.705Z,100906.06
2022-10-08T01:54:56.930Z,100898.84
2022-10-08T01:57:27.718Z,100903.91
2022-10-08T01:59:59.108Z,100902.16
2022-10-08T02:02:27.361Z,100890.47
2022-10-08T02:04:56.756Z,100892.28
2022-10-08T02:07:26.835Z,100902.47
2022-10-08T02:10:06.111Z,100896.56
2022-10-08T02:12:35.889Z,100892.84
2022-10-08T02:15:04.765Z,100888.28
2022-10-08T02:17:38.148Z,100892.94
2022-10-08T02:20:12.345Z,100895.50
2022-10-08T02:22:42.617Z,100894.63
2022-10-08T02:25:13.816Z,100894.13
2022-10-08T02:27:52.280Z,100891.28
2022-10-08T02:30:20.594Z,100889.66
2022-10-08T02:32:51.027Z,100886.81
2022-10-08T02:35:22.837Z,100887.53
2022-10-08T02:37:55.925Z,100879.84
2022-10-08T02:40:24.852Z,100880.75
2022-10-08T02:42:57.352Z,100873.75
2022-10-08T02:45:28.014Z,100869.16
2022-10-08T02:48:06.300Z,100871.22
2022-10-08T02:50:35.771Z,100881.56
2022-10-08T02:53:04.089Z,100874.34
2022-10-08T02:55:38.753Z,100875.03
2022-10-08T02:58:09.719Z,100872.94
2022-10-08T03:00:40.472Z,100876.34
2022-10-08T03:03:11.210Z,100871.81
2022-10-08T03:05:39.812Z,100884.41
2022-10-08T03:08:08.717Z,100887.03
2022-10-08T03:10:39.098Z,100881.69
2022-10-08T03:13:08.765Z,100887.25
2022-10-08T03:15:37.762Z,100877.41
2022-10-08T03:18:09.158Z,100876.88
2022-10-08T03:20:41.182Z,100883.63
2022-10-08T03:23:08.972Z,100889.59
2022-10-08T03:25:36.625Z,100884.84
2022-10-08T03:28:04.388Z,100879.81
2022-10-08T03:30:33.535Z,100889.59
2022-10-08T03:33:01.247Z,100893.06
2022-10-08T03:35:29.593Z,100886.00
2022-10-08T03:37:57.248Z,100891.41
2022-10-08T03:40:25.039Z,100888.41
2022-10-08T03:42:52.808Z,100877.06
2022-10-08T03:45:20.483Z,100883.13
2022-10-08T03:47:52.713Z,100885.78
2022-10-08T03:50:20.760Z,100885.81
2022-10-08T03:52:48.926Z,100889.09
2022-10-08T03:55:17.100Z,100887.81
2022-10-08T03:57:44.750Z,100892.59
2022-10-08T04:00:13.513Z,100883.88
2022-10-08T04:02:41.249Z,100882.81
2022-10-08T04:05:10.613Z,100878.00
2022-10-08T04:07:38.262Z,100880.44
2022-10-08T04:10:06.636Z,100881.28
2022-10-08T04:12:34.293Z,100882.28
2022-10-08T04:15:01.919Z,100892.81
2022-10-08T04:17:30.975Z,100885.34
2022-10-08T04:19:58.631Z,100877.91
2022-10-08T04:22:27.634Z,100884.72
2022-10-08T04:24:55.275Z,100875.06
2022-10-08T04:27:22.912Z,100869.31
2022-10-08T04:29:50.557Z,100869.91
2022-10-08T04:32:20.945Z,100870.59
2022-10-08T04:34:48.608Z,100876.81
2022-10-08T04:37:16.430Z,100874.00
2022-10-08T04:39:45.395Z,100877.69
2022-10-08T04:42:13.044Z,100878.38
2022-10-08T04:44:40.677Z,100865.31
2022-10-08T04:47:08.373Z,100878.00
2022-10-08T04:49:36.141Z,100870.34
2022-10-08T04:52:04.388Z,100875.38
2022-10-08T04:54:32.036Z,100876.69
2022-10-08T04:57:01.039Z,100879.22
2022-10-08T04:59:28.725Z,100869.69
2022-10-08T05:01:59.618Z,100880.66
2022-10-08T05:04:27.313Z,100885.16
2022-10-08T05:06:55.043Z,100882.59
2022-10-08T05:09:22.883Z,100881.38
2022-10-08T05:11:50.758Z,100886.59
2022-10-08T05:14:19.740Z,100885.34
2022-10-08T05:16:47.435Z,100882.75
2022-10-08T05:19:15.129Z,100890.22
2022-10-08T05:21:42.794Z,100896.75
2022-10-08T05:24:12.416Z,100890.56
2022-10-08T05:29:33.841Z,100899.00
2022-10-08T05:32:01.487Z,100900.69
2022-10-08T05:34:29.597Z,100889.16
2022-10-08T05:36:57.251Z,100893.50
2022-10-08T05:39:25.063Z,100892.06
2022-10-08T05:41:53.204Z,100901.53
2022-10-08T05:44:21.145Z,100898.66
2022-10-08T05:46:50.244Z,100898.03
2022-10-08T05:49:20.205Z,100914.53
2022-10-08T05:51:47.977Z,100916.09
2022-10-08T05:54:15.885Z,100925.06
2022-10-08T05:56:43.623Z,100928.75
2022-10-08T05:59:16.637Z,100924.44
2022-10-08T06:01:44.386Z,100926.75
2022-10-08T06:04:13.677Z,100935.03
2022-10-08T06:06:42.981Z,100935.22
2022-10-08T06:09:13.163Z,100934.72
2022-10-08T06:11:40.835Z,100943.66
2022-10-08T06:14:08.840Z,100940.22
2022-10-08T06:16:36.661Z,100952.13
2022-10-08T06:19:05.287Z,100947.88
2022-10-08T06:21:35.159Z,100959.97
2022-10-08T06:24:04.966Z,100965.00
2022-10-08T06:26:36.152Z,100960.09
2022-10-08T06:29:06.057Z,100969.75
2022-10-08T06:31:34.296Z,100970.78
2022-10-08T06:34:03.937Z,100971.41
2022-10-08T06:36:32.061Z,100972.84
2022-10-08T06:39:05.081Z,100958.94
2022-10-08T06:41:34.669Z,100960.44
2022-10-08T06:44:04.038Z,100958.41
2022-10-08T06:46:32.594Z,100967.34
2022-10-08T06:49:01.355Z,100968.13
2022-10-08T06:51:32.981Z,100970.53
2022-10-08T06:54:07.516Z,100966.53
2022-10-08T06:56:37.021Z,100963.03
2022-10-08T06:59:10.121Z,100966.22
2022-10-08T07:01:40.156Z,100979.28
2022-10-08T07:04:08.870Z,100990.13
2022-10-08T07:06:36.676Z,100999.31
2022-10-08T07:09:07.372Z,100997.81
2022-10-08T07:11:35.291Z,101006.28
2022-10-08T07:14:04.860Z,101011.19
2022-10-08T07:16:32.583Z,100997.81
2022-10-08T07:19:00.424Z,100998.22
2022-10-08T07:21:29.643Z,101012.75
2022-10-08T07:23:57.361Z,101007.44
2022-10-08T07:26:28.130Z,101009.88
2022-10-08T07:28:57.936Z,101018.22
2022-10-08T07:31:27.916Z,101017.41
2022-10-08T07:33:56.156Z,101024.50
2022-10-08T07:36:24.706Z,101026.56
2022-10-08T07:38:54.471Z,101033.38
2022-10-08T07:41:22.856Z,101036.53
2022-10-08T07:43:53.564Z,101032.41
2022-10-08T07:46:21.824Z,101032.50
2022-10-08T07:48:50.621Z,101030.03
2022-10-08T07:51:20.932Z,101043.84
2022-10-08T07:53:48.642Z,101047.63
2022-10-08T07:56:18.273Z,101056.97
2022-10-08T07:58:47.180Z,101053.50
2022-10-08T08:01:19.559Z,101060.88
2022-10-08T08:03:47.489Z,101069.44
2022-10-08T08:06:16.713Z,101073.44
2022-10-08T08:08:45.711Z,101081.03
2022-10-08T08:11:14.688Z,101072.66
2022-10-08T08:13:43.159Z,101069.41
2022-10-08T08:16:12.698Z,101076.31
2022-10-08T08:18:43.357Z,101076.25
2022-10-08T08:21:12.777Z,101079.09
2022-10-08T08:23:42.446Z,101081.66
2022-10-08T08:26:11.687Z,101092.91
2022-10-08T08:28:39.821Z,101086.03
2022-10-08T08:31:09.787Z,101089.63
2022-10-08T08:33:37.453Z,101095.53
2022-10-08T08:36:07.255Z,101100.13
2022-10-08T08:38:36.075Z,101107.75
2022-10-08T08:41:12.771Z,101102.72
2022-10-08T08:43:41.853Z,101107.50
2022-10-08T08:46:10.808Z,101115.53
2022-10-08T08:48:39.488Z,101115.22
2022-10-08T08:51:08.497Z,101117.97
2022-10-08T08:53:36.883Z,101113.63
2022-10-08T08:56:06.468Z,101115.44
2022-10-08T08:58:39.023Z,101124.63
2022-10-08T09:01:14.778Z,101123.72
2022-10-08T09:03:44.336Z,101127.06
2022-10-08T09:06:18.380Z,101122.78
2022-10-08T09:08:49.433Z,101126.53
2022-10-08T09:11:19.456Z,101128.16
2022-10-08T09:13:49.625Z,101124.94
2022-10-08T09:16:18.061Z,101126.19
2022-10-08T09:18:47.660Z,101129.28
2022-10-08T09:21:17.239Z,101133.91
2022-10-08T09:23:45.202Z,101125.88
2022-10-08T09:26:16.593Z,101134.47
2022-10-08T09:28:46.824Z,101139.00
2022-10-08T09:31:22.075Z,101140.94
2022-10-08T09:33:59.286Z,101139.41
2022-10-08T09:36:35.229Z,101145.59
2022-10-08T09:39:06.749Z,101139.72
2022-10-08T09:41:34.449Z,101147.63
2022-10-08T09:44:14.903Z,101139.84
2022-10-08T09:46:43.034Z,101133.34
2022-10-08T09:49:29.144Z,101156.41
2022-10-08T09:52:00.862Z,101152.53
2022-10-08T09:54:30.278Z,101151.56
2022-10-08T09:57:00.132Z,101155.13
2022-10-08T09:59:29.874Z,101150.25
2022-10-08T10:01:57.985Z,101166.75
2022-10-08T10:04:33.018Z,101158.06
2022-10-08T10:07:02.520Z,101161.59
2022-10-08T10:09:38.810Z,101162.56
2022-10-08T10:12:12.993Z,101155.44
2022-10-08T10:14:44.083Z,101154.72
2022-10-08T10:17:17.977Z,101163.34
2022-10-08T10:19:50.712Z,101156.28
2022-10-08T10:22:24.148Z,101148.41
2022-10-08T10:24:57.016Z,101156.78
2022-10-08T10:27:30.555Z,101160.06
2022-10-08T10:30:05.284Z,101163.38
2022-10-08T10:32:36.350Z,101158.53
2022-10-08T10:35:10.325Z,101158.97
2022-10-08T10:37:45.598Z,101171.41
2022-10-08T10:40:31.609Z,101164.09
2022-10-08T10:43:11.193Z,101160.81
2022-10-08T10:45:41.110Z,101164.34
2022-10-08T10:48:10.114Z,101164.94
2022-10-08T10:50:41.377Z,101164.91
2022-10-08T10:53:17.160Z,101163.50
2022-10-08T10:55:54.736Z,101168.41
2022-10-08T10:58:33.713Z,101174.06
2022-10-08T11:01:09.078Z,101181.56
2022-10-08T11:03:43.089Z,101200.75
2022-10-08T11:06:38.790Z,101193.94
2022-10-08T11:09:11.484Z,101189.66
2022-10-08T11:11:42.051Z,101195.63
2022-10-08T11:14:18.322Z,101199.72
2022-10-08T11:16:56.351Z,101194.44
2022-10-08T11:19:37.904Z,101193.28
2022-10-08T11:22:10.700Z,101200.03
2022-10-08T11:25:00.113Z,101194.50
2022-10-08T11:27:39.553Z,101198.91
2022-10-08T11:30:12.099Z,101190.94
2022-10-08T11:32:40.682Z,101194.56
2022-10-08T11:35:20.591Z,101196.91
2022-10-08T11:37:51.061Z,101193.28
2022-10-08T11:40:28.603Z,101198.91
2022-10-08T11:43:02.978Z,101199.25
2022-10-08T11:45:34.059Z,101204.13
2022-10-08T11:48:06.502Z,101203.00
2022-10-08T11:50:38.041Z,101203.16
2022-10-08T11:53:14.796Z,101202.00
2022-10-08T11:55:52.481Z,101204.19
2022-10-08T11:58:23.750Z,101203.41
2022-10-08T12:00:54.093Z,101201.84
2022-10-08T12:03:24.685Z,101202.72
2022-10-08T12:05:54.445Z,101209.50
2022-10-08T12:08:53.159Z,101206.31
2022-10-08T12:11:55.168Z,101194.56
2022-10-08T12:14:48.496Z,101201.75
2022-10-08T12:17:17.140Z,101204.56
2022-10-08T12:20:19.465Z,101199.94
2022-10-08T12:23:34.935Z,101211.06
2022-10-08T12:26:13.144Z,101212.13
2022-10-08T12:28:50.090Z,101216.75
2022-10-08T12:31:35.477Z,101205.75
2022-10-08T12:34:13.035Z,101195.50
2022-10-08T12:36:45.341Z,101199.28
2022-10-08T12:39:19.663Z,101200.38
2022-10-08T12:41:54.063Z,101210.47
2022-10-08T12:44:31.530Z,101196.09
2022-10-08T12:47:05.853Z,101198.03
2022-10-08T12:49:36.306Z,101200.50
2022-10-08T12:52:07.101Z,101206.66
2022-10-08T12:54:35.069Z,101214.19
2022-10-08T12:57:11.127Z,101210.34
2022-10-08T12:59:41.461Z,101204.72
2022-10-08T13:02:28.104Z,101209.06
2022-10-08T13:04:55.805Z,101214.41
2022-10-08T13:07:28.225Z,101219.03
2022-10-08T13:09:56.768Z,101222.31
2022-10-08T13:12:26.043Z,101214.13
2022-10-08T13:15:00.984Z,101217.97
2022-10-08T13:17:29.353Z,101209.63
2022-10-08T13:20:09.079Z,101211.31
2022-10-08T13:22:36.764Z,101219.03
2022-10-08T13:25:06.418Z,101225.41
2022-10-08T13:27:35.427Z,101224.25
2022-10-08T13:30:23.611Z,101231.56
2022-10-08T13:32:51.288Z,101231.56
2022-10-08T13:35:21.658Z,101229.50
2022-10-08T13:37:53.266Z,101236.25
2022-10-08T13:40:22.282Z,101241.41
2022-10-08T13:42:52.853Z,101233.75
2022-10-08T13:45:22.454Z,101244.50
2022-10-08T13:47:51.525Z,101246.41
2022-10-08T13:50:20.023Z,101249.69
2022-10-08T13:52:51.168Z,101259.88
2022-10-08T13:55:23.615Z,101255.34
2022-10-08T13:57:52.633Z,101256.38
2022-10-08T14:00:20.880Z,101256.06
2022-10-08T14:02:48.540Z,101259.94
2022-10-08T14:05:16.300Z,101266.63
2022-10-08T14:07:44.737Z,101273.03
2022-10-08T14:10:14.042Z,101275.63
2022-10-08T14:12:41.973Z,101279.44
2022-10-08T14:15:12.982Z,101283.00
2022-10-08T14:17:40.629Z,101284.56
2022-10-08T14:20:09.387Z,101301.13
2022-10-08T14:22:39.493Z,101304.91
2022-10-08T14:25:08.627Z,101294.59
2022-10-08T14:27:36.269Z,101298.63
2022-10-08T14:30:04.083Z,101291.72
2022-10-08T14:32:33.068Z,101296.56
2022-10-08T14:35:00.868Z,101303.66
2022-10-08T14:37:28.587Z,101293.91
2022-10-08T14:39:56.318Z,101305.88
2022-10-08T14:42:24.116Z,101315.94
2022-10-08T14:44:53.173Z,101326.53
2022-10-08T14:47:20.964Z,101329.22
2022-10-08T14:49:50.061Z,101329.91
2022-10-08T14:52:17.739Z,101339.50
2022-10-08T14:54:45.440Z,101335.31
2022-10-08T14:57:13.209Z,101343.91
2022-10-08T14:59:41.205Z,101348.41
2022-10-08T15:02:10.298Z,101348.59
2022-10-08T15:04:38.186Z,101348.44
2022-10-08T15:07:07.297Z,101356.91
2022-10-08T15:09:37.042Z,101360.50
2022-10-08T15:12:04.974Z,101373.34
2022-10-08T15:14:37.807Z,101375.25
2022-10-08T15:17:06.534Z,101374.44
2022-10-08T15:19:34.248Z,101373.75
2022-10-08T15:22:01.933Z,101382.31
2022-10-08T15:24:30.961Z,101377.31
2022-10-08T15:26:58.682Z,101379.19
2022-10-08T15:29:28.540Z,101373.34
2022-10-08T15:31:56.295Z,101385.91
2022-10-08T15:34:24.041Z,101392.59
2022-10-08T15:36:55.025Z,101377.53
2022-10-08T15:39:22.984Z,101386.22
2022-10-08T15:41:53.349Z,101382.00
2022-10-08T15:44:27.080Z,101389.34
2022-10-08T15:47:03.571Z,101394.03
2022-10-08T15:49:32.199Z,101407.50
2022-10-08T15:52:00.497Z,101412.91
2022-10-08T15:54:28.198Z,101416.53
2022-10-08T15:56:57.212Z,101420.25
2022-10-08T15:59:24.845Z,101415.22
2022-10-08T16:01:52.500Z,101427.31
2022-10-08T16:04:20.143Z,101433.97
2022-10-08T16:06:47.807Z,101435.81
2022-10-08T16:09:17.077Z,101444.66
2022-10-08T16:11:45.449Z,101454.19
2022-10-08T16:14:16.680Z,101448.34
2022-10-08T16:16:44.947Z,101449.16
2022-10-08T16:19:16.024Z,101452.50
2022-10-08T16:21:45.478Z,101456.59
2022-10-08T16:24:13.709Z,101463.50
2022-10-08T16:26:42.294Z,101464.06
2022-10-08T16:29:12.669Z,101459.28
2022-10-08T16:31:43.127Z,101463.88
2022-10-08T16:34:13.723Z,101474.47
2022-10-08T16:36:41.695Z,101483.59
2022-10-08T16:39:09.903Z,101483.47
2022-10-08T16:41:38.077Z,101491.97
2022-10-08T16:44:11.982Z,101499.84
2022-10-08T16:46:43.015Z,101504.38
2022-10-08T16:49:17.269Z,101506.66
2022-10-08T16:51:48.085Z,101515.84
2022-10-08T16:54:17.076Z,101512.44
2022-10-08T16:56:45.804Z,101526.03
2022-10-08T16:59:15.215Z,101526.34
2022-10-08T17:01:45.924Z,101538.25
2022-10-08T17:04:14.357Z,101543.13
2022-10-08T17:06:42.217Z,101548.72
2022-10-08T17:09:09.955Z,101553.63
2022-10-08T17:11:37.631Z,101557.66
2022-10-08T17:14:07.489Z,101559.91
2022-10-08T17:16:36.244Z,101561.16
2022-10-08T17:19:06.152Z,101559.44
2022-10-08T17:21:43.749Z,101553.50
2022-10-08T17:24:12.474Z,101559.22
2022-10-08T17:26:41.687Z,101564.53
2022-10-08T17:29:12.442Z,101570.47
2022-10-08T17:31:40.603Z,101571.44
2022-10-08T17:34:12.309Z,101580.00
2022-10-08T17:36:44.019Z,101573.72
2022-10-08T17:39:13.672Z,101583.56
2022-10-08T17:41:42.594Z,101585.50
2022-10-08T17:44:11.066Z,101591.28
2022-10-08T17:46:41.544Z,101587.81
2022-10-08T17:49:09.304Z,101599.63
2022-10-08T17:51:36.959Z,101600.03
2022-10-08T17:54:12.376Z,101602.41
2022-10-08T17:56:40.652Z,101607.59
2022-10-08T17:59:08.712Z,101608.31
2022-10-08T18:01:40.224Z,101614.97
2022-10-08T18:04:13.586Z,101612.31
2022-10-08T18:06:42.432Z,101618.97
2022-10-08T18:09:13.634Z,101620.91
2022-10-08T18:11:43.619Z,101622.06
2022-10-08T18:14:11.650Z,101618.66
2022-10-08T18:16:40.348Z,101623.88
2022-10-08T18:19:10.484Z,101634.06
2022-10-08T18:21:38.225Z,101637.84
2022-10-08T18:24:06.185Z,101650.66
2022-10-08T18:26:36.812Z,101653.44
2022-10-08T18:29:08.788Z,101655.78
2022-10-08T18:31:36.972Z,101650.78
2022-10-08T18:34:06.296Z,101658.69
2022-10-08T18:36:35.201Z,101661.09
2022-10-08T18:39:08.284Z,101662.25
2022-10-08T18:41:38.827Z,101663.09
2022-10-08T18:44:07.177Z,101664.16
2022-10-08T18:46:35.790Z,101668.28
2022-10-08T18:49:08.904Z,101678.25
2022-10-08T18:51:36.586Z,101686.06
2022-10-08T18:54:06.705Z,101687.13
2022-10-08T18:56:39.216Z,101689.13
2022-10-08T18:59:08.506Z,101684.41
2022-10-08T19:01:38.464Z,101688.28
2022-10-08T19:04:08.341Z,101680.69
2022-10-08T19:06:38.894Z,101687.53
2022-10-08T19:09:12.494Z,101690.16
2022-10-08T19:11:44.922Z,101697.00
2022-10-08T19:14:14.451Z,101699.75
2022-10-08T19:16:42.164Z,101703.13
2022-10-08T19:19:14.007Z,101711.41
2022-10-08T19:21:41.700Z,101712.03
2022-10-08T19:24:14.602Z,101709.75
2022-10-08T19:26:43.708Z,101704.84
2022-10-08T19:29:15.161Z,101705.31
2022-10-08T19:31:43.442Z,101722.69
2022-10-08T19:34:13.533Z,101726.16
2022-10-08T19:36:41.576Z,101725.97
2022-10-08T19:39:12.373Z,101730.34
2022-10-08T19:41:40.844Z,101739.00
2022-10-08T19:44:11.500Z,101736.56
2022-10-08T19:46:39.630Z,101736.47
2022-10-08T19:49:08.592Z,101744.19
2022-10-08T19:51:36.952Z,101739.91
2022-10-08T19:54:05.495Z,101752.72
2022-10-08T19:56:36.949Z,101754.63
2022-10-08T19:59:06.558Z,101747.19
2022-10-08T20:01:37.387Z,101751.53
2022-10-08T20:04:06.046Z,101754.97
2022-10-08T20:06:36.062Z,101764.94
2022-10-08T20:09:05.287Z,101758.09
2022-10-08T20:11:33.609Z,101762.34
2022-10-08T20:14:03.001Z,101765.56
2022-10-08T20:16:32.025Z,101770.03
2022-10-08T20:19:04.956Z,101774.38
2022-10-08T20:21:38.192Z,101775.09
2022-10-08T20:24:06.939Z,101775.56
2022-10-08T20:26:36.101Z,101777.81
2022-10-08T20:29:06.317Z,101777.69
2022-10-08T20:31:35.758Z,101782.03
2022-10-08T20:34:10.883Z,101785.81
2022-10-08T20:36:38.613Z,101779.53
2022-10-08T20:39:06.784Z,101788.50
2022-10-08T20:41:34.519Z,101793.47
2022-10-08T20:44:03.919Z,101791.91
2022-10-08T20:46:32.406Z,101788.50
2022-10-08T20:49:00.388Z,101797.09
2022-10-08T20:51:30.280Z,101795.22
2022-10-08T20:53:59.124Z,101799.66
2022-10-08T20:56:27.484Z,101805.69
2022-10-08T20:58:55.753Z,101807.91
2022-10-08T21:01:26.164Z,101809.81
2022-10-08T21:03:54.661Z,101803.69
2022-10-08T21:06:23.744Z,101808.28
2022-10-08T21:08:54.258Z,101809.81
2022-10-08T21:11:23.383Z,101814.72
2022-10-08T21:13:51.360Z,101814.16
2022-10-08T21:16:21.755Z,101824.41
2022-10-08T21:18:50.463Z,101816.88
2022-10-08T21:21:18.348Z,101820.97
2022-10-08T21:23:46.104Z,101827.78
2022-10-08T21:26:17.167Z,101827.47
2022-10-08T21:28:46.572Z,101830.16
2022-10-08T21:31:15.634Z,101822.72
2022-10-08T21:33:45.225Z,101827.56
2022-10-08T21:36:15.152Z,101819.47
2022-10-08T21:38:43.243Z,101833.94
2022-10-08T21:41:12.621Z,101835.44
2022-10-08T21:43:43.009Z,101836.41
2022-10-08T21:46:12.195Z,101836.63
2022-10-08T21:48:39.946Z,101842.59
2022-10-08T21:51:08.937Z,101838.63
2022-10-08T21:53:38.202Z,101841.09
2022-10-08T21:56:08.192Z,101833.31
2022-10-08T21:58:39.799Z,101840.97
2022-10-08T22:01:10.052Z,101841.31
2022-10-08T22:03:38.257Z,101846.72
2022-10-08T22:06:05.979Z,101848.13
2022-10-08T22:08:33.642Z,101846.25
2022-10-08T22:11:01.333Z,101842.03
2022-10-08T22:13:32.440Z,101843.91
2022-10-08T22:16:01.583Z,101847.66
2022-10-08T22:18:32.838Z,101844.63
2022-10-08T22:21:02.272Z,101850.47
2022-10-08T22:23:30.078Z,101847.91
2022-10-08T22:25:59.163Z,101851.78
2022-10-08T22:28:27.925Z,101856.38
2022-10-08T22:30:56.196Z,101856.25
2022-10-08T22:33:23.863Z,101846.63
2022-10-08T22:35:52.866Z,101857.16
2022-10-08T22:38:20.524Z,101867.97
2022-10-08T22:40:48.173Z,101864.81
2022-10-08T22:43:16.153Z,101860.47
2022-10-08T22:45:44.210Z,101859.28
2022-10-08T22:48:11.864Z,101855.28
2022-10-08T22:50:39.509Z,101859.41
2022-10-08T22:53:08.600Z,101868.81
2022-10-08T22:55:40.698Z,101869.50
2022-10-08T22:58:08.454Z,101872.06
2022-10-08T23:00:36.109Z,101869.50
2022-10-08T23:03:05.316Z,101875.38
2022-10-08T23:05:33.100Z,101880.56
2022-10-08T23:08:00.741Z,101879.25
2022-10-08T23:10:30.424Z,101875.59
2022-10-08T23:12:58.088Z,101884.69
2022-10-08T23:15:25.903Z,101883.34
2022-10-08T23:17:53.541Z,101877.94
2022-10-08T23:20:27.139Z,101881.34
2022-10-08T23:22:54.779Z,101876.53
2022-10-08T23:25:22.446Z,101883.00
2022-10-08T23:27:51.577Z,101886.56
2022-10-08T23:30:41.742Z,101880.13
2022-10-08T23:33:06.874Z,101887.78
2022-10-08T23:35:34.559Z,101876.19
2022-10-08T23:38:02.279Z,101886.56
2022-10-08T23:40:29.997Z,101885.97
2022-10-08T23:42:59.005Z,101883.50
2022-10-08T23:45:26.753Z,101884.56
2022-10-08T23:47:54.458Z,101887.63
2022-10-08T23:50:22.141Z,101890.19
2022-10-08T23:52:50.293Z,101894.31
2022-10-08T23:55:18.191Z,101887.63
2022-10-08T23:57:45.868Z,101900.41
